Time;durP1;ratioP1;P1;durP2;ratioP2;P2;SDS_P1;SDS_P2;PMS_P1;PMS_P2;Temp;Humidity;BMP_temperature;BMP_pressure;BME280_temperature;BME280_humidity;BME280_pressure;Samples;Min_cycle;Max_cycle;Signal;HPM_P1;HPM_P2
2022/09/01 00:03:01;;;;;;;2.2;4.2;;;;;;;12.9;100;98900;;;;
2022/09/01 00:13:01;;;;;;;2.2;4.2;;;;;;;12.8;100;98900;;;;
2022/09/01 00:24:01;;;;;;;2.2;4.2;;;;;;;12.7;100;98890;;;;
2022/09/01 00:35:01;;;;;;;2.7;6.4;;;;;;;12.6;100;98890;;;;
2022/09/01 00:45:01;;;;;;;2.7;6.4;;;;;;;12.5;100;98890;;;;
2022/09/01 00:56:01;;;;;;;2.7;6.4;;;;;;;12.4;100;98880;;;;
2022/09/01 01:07:01;;;;;;;2.1;4.1;;;;;;;12.3;100;98890;;;;
2022/09/01 01:18:01;;;;;;;2.1;4.1;;;;;;;12;100;98890;;;;
2022/09/01 01:28:01;;;;;;;2.1;4.1;;;;;;;11.9;100;98880;;;;
2022/09/01 01:38:01;;;;;;;2;5;;;;;;;12;100;98890;;;;
2022/09/01 01:48:04;;;;;;;2;5;;;;;;;11.8;100;98880;;;;
2022/09/01 01:59:01;;;;;;;2.2;5;;;;;;;11.8;100;98880;;;;
2022/09/01 02:10:01;;;;;;;2.2;5;;;;;;;11.6;100;98870;;;;
2022/09/01 02:20:02;;;;;;;2.2;5;;;;;;;11.5;100;98880;;;;
2022/09/01 02:30:01;;;;;;;2.1;7.8;;;;;;;11.4;100;98870;;;;
2022/09/01 02:40:01;;;;;;;2.1;7.8;;;;;;;11.5;100;98880;;;;
2022/09/01 02:50:02;;;;;;;2.1;7.8;;;;;;;11.5;100;98880;;;;
2022/09/01 03:01:01;;;;;;;2.6;5.6;;;;;;;11.5;100;98880;;;;
2022/09/01 03:12:01;;;;;;;2.6;5.6;;;;;;;11.4;100;98880;;;;
2022/09/01 03:23:01;;;;;;;2.6;5.6;;;;;;;11.3;100;98870;;;;
2022/09/01 03:34:02;;;;;;;2.3;6.1;;;;;;;11.4;100;98870;;;;
2022/09/01 03:44:01;;;;;;;2.3;6.1;;;;;;;11.5;100;98870;;;;
2022/09/01 03:55:01;;;;;;;2.3;6.1;;;;;;;11.4;100;98880;;;;
2022/09/01 04:06:01;;;;;;;2.4;5.3;;;;;;;11.4;100;98880;;;;
2022/09/01 04:16:01;;;;;;;2.4;5.3;;;;;;;11.4;100;98890;;;;
2022/09/01 04:27:01;;;;;;;2.4;5.3;;;;;;;11.3;100;98880;;;;
2022/09/01 04:37:02;;;;;;;2.6;5.5;;;;;;;11.3;100;98890;;;;
2022/09/01 04:48:01;;;;;;;2.6;5.5;;;;;;;11.4;100;98890;;;;
2022/09/01 04:58:02;;;;;;;2.6;5.5;;;;;;;11.5;100;98890;;;;
2022/09/01 05:09:01;;;;;;;2.3;5.7;;;;;;;11.7;100;98900;;;;
2022/09/01 05:19:01;;;;;;;2.3;5.7;;;;;;;11.9;100;98900;;;;
2022/09/01 05:30:01;;;;;;;2.7;6.6;;;;;;;12.2;100;98910;;;;
2022/09/01 05:41:03;;;;;;;2.7;6.6;;;;;;;12.5;100;98900;;;;
2022/09/01 05:52:01;;;;;;;2.7;6.6;;;;;;;12.9;100;98900;;;;
2022/09/01 06:02:01;;;;;;;3.1;5.5;;;;;;;13.3;100;98920;;;;
2022/09/01 06:13:01;;;;;;;3.1;5.5;;;;;;;13.2;100;98930;;;;
2022/09/01 06:24:03;;;;;;;3.1;5.5;;;;;;;13.9;100;98930;;;;
2022/09/01 06:34:01;;;;;;;3.3;7.1;;;;;;;14;100;98930;;;;
2022/09/01 06:45:01;;;;;;;3.3;7.1;;;;;;;14.7;100;98940;;;;
2022/09/01 06:55:01;;;;;;;3.3;7.1;;;;;;;15.2;100;98950;;;;
2022/09/01 07:06:02;;;;;;;2.9;5.3;;;;;;;15.7;100;98940;;;;
2022/09/01 07:16:03;;;;;;;2.9;5.3;;;;;;;16;100;98950;;;;
2022/09/01 07:27:01;;;;;;;2.9;5.3;;;;;;;16;100;98950;;;;
2022/09/01 07:37:01;;;;;;;2.5;6.3;;;;;;;16.2;100;98950;;;;
2022/09/01 07:48:01;;;;;;;2.5;6.3;;;;;;;16.4;100;98950;;;;
2022/09/01 07:58:01;;;;;;;2.5;4.9;;;;;;;16.4;100;98950;;;;
2022/09/01 08:08:01;;;;;;;2.5;4.9;;;;;;;16.9;100;98950;;;;
2022/09/01 08:19:01;;;;;;;2.5;4.9;;;;;;;17;100;98950;;;;
2022/09/01 08:30:01;;;;;;;2.3;5.2;;;;;;;17.2;100;98950;;;;
2022/09/01 08:40:01;;;;;;;2.3;5.2;;;;;;;17.7;100;98960;;;;
2022/09/01 08:51:01;;;;;;;2.3;5.2;;;;;;;17.8;100;98950;;;;
2022/09/01 09:01:01;;;;;;;4;9.8;;;;;;;17.8;100;98960;;;;
2022/09/01 09:12:01;;;;;;;4;9.8;;;;;;;18.9;100;98950;;;;
2022/09/01 09:23:01;;;;;;;4;9.8;;;;;;;18.8;100;98950;;;;
2022/09/01 09:34:01;;;;;;;1.2;3.4;;;;;;;18.9;100;98950;;;;
2022/09/01 09:44:01;;;;;;;1.2;3.4;;;;;;;19.1;100;98940;;;;
2022/09/01 09:55:02;;;;;;;1.2;3.4;;;;;;;19.7;100;98930;;;;
2022/09/01 10:05:01;;;;;;;1.1;3.4;;;;;;;20.1;93.7;98940;;;;
2022/09/01 10:15:01;;;;;;;1.1;3.4;;;;;;;19.8;91.8;98930;;;;
2022/09/01 10:26:01;;;;;;;1.1;3.4;;;;;;;19.4;94.9;98930;;;;
2022/09/01 10:36:01;;;;;;;3.3;6.8;;;;;;;19.2;95.9;98930;;;;
2022/09/01 10:46:01;;;;;;;3.3;6.8;;;;;;;19.7;93.9;98920;;;;
2022/09/01 10:56:01;;;;;;;3.3;6.8;;;;;;;20;89.9;98920;;;;
2022/09/01 11:06:01;;;;;;;1.1;3.9;;;;;;;19.2;91.2;98920;;;;
2022/09/01 11:16:01;;;;;;;1.1;3.9;;;;;;;19.8;88.6;98910;;;;
2022/09/01 11:26:01;;;;;;;1.1;3.9;;;;;;;20.8;85.5;98910;;;;
2022/09/01 11:36:01;;;;;;;2.8;6.2;;;;;;;19.7;86.8;98910;;;;
2022/09/01 11:47:01;;;;;;;2.8;6.2;;;;;;;20.2;83.4;98900;;;;
2022/09/01 11:58:01;;;;;;;2.8;6.2;;;;;;;20.6;77.7;98900;;;;
2022/09/01 12:08:01;;;;;;;1;3.2;;;;;;;20.9;72;98900;;;;
2022/09/01 12:19:01;;;;;;;1;3.2;;;;;;;21.3;70.1;98890;;;;
2022/09/01 12:29:01;;;;;;;0.6;2.9;;;;;;;21.6;68.1;98880;;;;
2022/09/01 12:40:01;;;;;;;0.6;2.9;;;;;;;21.6;67.7;98890;;;;
2022/09/01 12:50:01;;;;;;;0.6;2.9;;;;;;;21.7;65.3;98880;;;;
2022/09/01 13:00:03;;;;;;;0.8;3.1;;;;;;;21.6;61.8;98880;;;;
2022/09/01 13:11:01;;;;;;;0.8;3.1;;;;;;;21.2;63.8;98880;;;;
2022/09/01 13:21:01;;;;;;;0.8;3.1;;;;;;;20.7;68.4;98880;;;;
2022/09/01 13:31:04;;;;;;;0.7;2.2;;;;;;;20.2;70.1;98880;;;;
2022/09/01 13:42:01;;;;;;;0.7;2.2;;;;;;;20.2;69.7;98880;;;;
2022/09/01 13:53:01;;;;;;;0.7;2.2;;;;;;;20;72;98880;;;;
2022/09/01 14:04:03;;;;;;;0.7;2.9;;;;;;;20;74.3;98890;;;;
2022/09/01 14:15:01;;;;;;;0.7;2.9;;;;;;;19.7;74.4;98880;;;;
2022/09/01 14:25:01;;;;;;;0.7;2.9;;;;;;;19.7;74.1;98870;;;;
2022/09/01 14:36:02;;;;;;;0.8;2.8;;;;;;;20.2;74.7;98870;;;;
2022/09/01 14:47:01;;;;;;;0.8;2.8;;;;;;;21.2;68.9;98860;;;;
2022/09/01 14:58:01;;;;;;;0.8;2.8;;;;;;;21;64;98870;;;;
2022/09/01 15:08:01;;;;;;;1.1;4.7;;;;;;;22.7;58.2;98870;;;;
2022/09/01 15:18:01;;;;;;;1.1;4.7;;;;;;;21.7;60.2;98870;;;;
2022/09/01 15:29:01;;;;;;;0.9;2.3;;;;;;;23.9;56.1;98880;;;;
2022/09/01 15:40:01;;;;;;;0.9;2.3;;;;;;;25.9;49.9;98880;;;;
2022/09/01 15:50:01;;;;;;;0.9;2.3;;;;;;;25.9;49.7;98880;;;;
2022/09/01 16:01:01;;;;;;;6.5;9.2;;;;;;;26;48.3;98890;;;;
2022/09/01 16:12:01;;;;;;;6.5;9.2;;;;;;;26.7;49.1;98890;;;;
2022/09/01 16:23:01;;;;;;;6.5;9.2;;;;;;;27.6;45.8;98900;;;;
2022/09/01 16:33:01;;;;;;;7.1;11.6;;;;;;;24.5;49.4;98900;;;;
2022/09/01 16:44:01;;;;;;;7.1;11.6;;;;;;;22.1;57;98890;;;;
2022/09/01 16:54:01;;;;;;;7.1;11.6;;;;;;;20.4;62.7;98890;;;;
2022/09/01 17:05:01;;;;;;;8;10.4;;;;;;;18.9;68.7;98890;;;;
2022/09/01 17:16:01;;;;;;;8;10.4;;;;;;;18.2;72;98910;;;;
2022/09/01 17:26:01;;;;;;;8;10.4;;;;;;;17.7;75.2;98910;;;;
2022/09/01 17:37:04;;;;;;;23.7;32.8;;;;;;;17.2;79.2;98910;;;;
2022/09/01 17:47:01;;;;;;;23.7;32.8;;;;;;;16.7;88.2;98910;;;;
2022/09/01 17:57:01;;;;;;;23.7;32.8;;;;;;;16.3;91.8;98920;;;;
2022/09/01 18:08:01;;;;;;;9.7;14;;;;;;;16.1;93.3;98930;;;;
2022/09/01 18:19:01;;;;;;;9.7;14;;;;;;;16;92.5;98950;;;;
2022/09/01 18:29:01;;;;;;;1.9;4.4;;;;;;;15.9;97.4;98950;;;;
2022/09/01 18:40:01;;;;;;;1.9;4.4;;;;;;;15.8;98.4;98950;;;;
2022/09/01 18:51:01;;;;;;;1.9;4.4;;;;;;;15.5;100;98950;;;;
2022/09/01 19:01:01;;;;;;;1.6;5;;;;;;;15.2;100;98960;;;;
2022/09/01 19:12:01;;;;;;;1.6;5;;;;;;;14.7;100;98970;;;;
2022/09/01 19:23:01;;;;;;;1.6;5;;;;;;;14.3;100;98970;;;;
2022/09/01 19:34:01;;;;;;;2;5.7;;;;;;;14;100;98970;;;;
2022/09/01 19:44:01;;;;;;;2;5.7;;;;;;;13.8;100;98980;;;;
2022/09/01 19:55:01;;;;;;;2;5.7;;;;;;;13.5;100;98990;;;;
2022/09/01 20:05:01;;;;;;;1.9;5.4;;;;;;;13.3;100;98980;;;;
2022/09/01 20:15:01;;;;;;;1.9;5.4;;;;;;;13.1;100;98990;;;;
2022/09/01 20:26:02;;;;;;;1.9;5.4;;;;;;;12.7;100;99000;;;;
2022/09/01 20:36:01;;;;;;;1.6;3.7;;;;;;;12.5;100;99000;;;;
2022/09/01 20:46:01;;;;;;;1.6;3.7;;;;;;;12.3;100;99010;;;;
2022/09/01 20:57:01;;;;;;;1.6;3.7;;;;;;;12;100;99000;;;;
2022/09/01 21:08:01;;;;;;;1.9;5.3;;;;;;;11.7;100;99010;;;;
2022/09/01 21:18:01;;;;;;;1.9;5.3;;;;;;;11.4;100;99010;;;;
2022/09/01 21:29:01;;;;;;;1.6;4.2;;;;;;;11.3;100;99020;;;;
2022/09/01 21:40:01;;;;;;;1.6;4.2;;;;;;;11.1;100;99020;;;;
2022/09/01 21:51:03;;;;;;;1.6;4.2;;;;;;;10.9;100;99030;;;;
2022/09/01 22:01:01;;;;;;;1.5;3.1;;;;;;;10.8;100;99020;;;;
2022/09/01 22:12:01;;;;;;;1.5;3.1;;;;;;;10.7;100;99020;;;;
2022/09/01 22:22:01;;;;;;;1.5;3.1;;;;;;;10.6;100;99020;;;;
2022/09/01 22:32:01;;;;;;;1.8;3.3;;;;;;;10.5;100;99020;;;;
2022/09/01 22:43:04;;;;;;;1.8;3.3;;;;;;;10.2;100;99020;;;;
2022/09/01 22:54:01;;;;;;;1.8;3.3;;;;;;;10;100;99020;;;;
2022/09/01 23:04:03;;;;;;;1;2.7;;;;;;;9.9;100;99020;;;;
2022/09/01 23:15:01;;;;;;;1;2.7;;;;;;;9.7;100;99010;;;;
2022/09/01 23:25:01;;;;;;;1;2.7;;;;;;;9.6;100;99010;;;;
2022/09/01 23:36:02;;;;;;;1;2.2;;;;;;;9.4;100;99020;;;;
2022/09/01 23:47:01;;;;;;;1;2.2;;;;;;;9.3;100;99010;;;;
2022/09/01 23:58:01;;;;;;;1;2.3;;;;;;;9.2;100;99000;;;;
